Terminal Aerodrome Forecast
Issued by NWS Green Bay, WI

Home | Current Version | Previous Version | Graphics & Text | Print | Product List | Glossary On
Versions: 1 2 3 4 5 6 7 8 9 10 11 12 13 14 15 16 17 18 19
000
FTUS43 KGRB 251417 AAA
TAFGRB
TAF AMD
KGRB 251417Z 2514/2612 28012KT 4SM -SN SCT015 BKN030
      TEMPO 2514/2516 2SM -SN BKN015
     FM251600 30015G24KT P6SM -SN OVC025
     FM251800 30015G24KT P6SM BKN030
     FM252100 29012KT P6SM SCT040
     FM260000 27008KT P6SM SKC
     FM260600 22007KT P6SM BKN100=

USA.gov is the U.S. government's official web portal to all federal, state and local government web resources and services.